This is the latest recevied weather packets stored in our database for station/object IT9FDP-13. If no packets are shown the sender has not sent any weather packets the latest 10 day(s).
| Time | Temp. | Humidity | Pressure | Rain* | Wind** | Luminosity | Snow |
|---|---|---|---|---|---|---|---|
| 1777132540 | 18.33° C | 59% | 1015.9 hPa | 0 mm | - | - | - |
| 1777131922 | 18.33° C | 57% | 1015.8 hPa | 0 mm | - | - | - |
| 1777127421 | 21.11° C | 39% | 1015.7 hPa | 0 mm | - | - | - |
| 1777126225 | 21.11° C | 39% | 1015.7 hPa | 0 mm | - | - | - |
| 1777125321 | 21.11° C | 39% | 1015.7 hPa | 0 mm | - | - | - |
| 1777122940 | 21.67° C | 37% | 1016 hPa | 0 mm | - | - | - |
| 1777122325 | 21.67° C | 38% | 1016 hPa | 0 mm | - | - | - |
| 1777122046 | 21.67° C | 38% | 1016 hPa | 0 mm | - | - | - |
| 1777121118 | 21.67° C | 39% | 1016 hPa | 0 mm | - | - | - |
| 1777120518 | 21.67° C | 39% | 1016.1 hPa | 0 mm | - | - | - |
| 1777117823 | 22.22° C | 43% | 1016.1 hPa | 0 mm | - | - | - |
| 1777113057 | 19.44° C | 51% | 1016.8 hPa | 0 mm | - | - | - |
| 1777111819 | 20° C | 50% | 1016.9 hPa | 0 mm | - | - | - |
| 1777110345 | 19.44° C | 52% | 1017.2 hPa | 0 mm | - | - | - |
| 1777109128 | 19.44° C | 53% | 1017.2 hPa | 0 mm | - | - | - |
| 1777105223 | 20.56° C | 50% | 1017.4 hPa | 0 mm | - | - | - |
| 1777104916 | 20.56° C | 50% | 1017.4 hPa | 0 mm | - | - | - |
| 1777104646 | 20.56° C | 49% | 1017.4 hPa | 0 mm | - | - | - |
| 1777104023 | 20° C | 49% | 1017.3 hPa | 0 mm | - | - | - |
| 1777103121 | 20.56° C | 50% | 1017.3 hPa | 0 mm | - | - | - |
| 1777101323 | 19.44° C | 52% | 1017.3 hPa | 0 mm | - | - | - |
| 1777100716 | 19.44° C | 53% | 1017.1 hPa | 0 mm | - | - | - |
| 1777097121 | 18.33° C | 59% | 1016.9 hPa | 0 mm | - | - | - |
| 1777096819 | 18.33° C | 59% | 1017 hPa | 0 mm | - | - | - |
| 1777096226 | 17.78° C | 59% | 1016.8 hPa | 0 mm | - | - | - |
* Rain latest hour (hover to see other rain measurements)
** Current wind speed in m/s (hover to see current wind gust speed)